createdAt,value
2022-12-07T00:01:25.280Z,21.90
2022-12-07T00:02:56.904Z,18.20
2022-12-07T00:04:30.339Z,18.40
2022-12-07T00:06:04.120Z,19.20
2022-12-07T00:07:41.898Z,18.20
2022-12-07T00:09:16.954Z,14.60
2022-12-07T00:10:48.079Z,19.00
2022-12-07T00:12:46.822Z,19.20
2022-12-07T00:14:21.870Z,19.40
2022-12-07T00:15:53.933Z,20.20
2022-12-07T00:17:25.035Z,17.40
2022-12-07T00:18:58.260Z,18.90
2022-12-07T00:20:29.765Z,20.10
2022-12-07T00:22:01.149Z,20.20
2022-12-07T00:23:37.402Z,16.50
2022-12-07T00:25:11.435Z,18.70
2022-12-07T00:26:43.028Z,16.60
2022-12-07T00:28:14.260Z,22.10
2022-12-07T00:29:45.654Z,15.40
2022-12-07T00:31:20.041Z,17.40
2022-12-07T00:32:51.239Z,18.30
2022-12-07T00:34:22.690Z,15.80
2022-12-07T00:35:58.078Z,16.70
2022-12-07T00:37:29.279Z,17.20
2022-12-07T00:39:02.511Z,18.00
2022-12-07T00:40:33.622Z,17.10
2022-12-07T00:42:04.888Z,15.70
2022-12-07T00:43:36.133Z,15.00
2022-12-07T00:45:08.587Z,17.30
2022-12-07T00:46:39.624Z,16.80
2022-12-07T00:48:11.922Z,19.60
2022-12-07T00:49:44.170Z,19.60
2022-12-07T00:51:19.420Z,21.20
2022-12-07T00:52:50.671Z,17.50
2022-12-07T00:54:23.214Z,21.20
2022-12-07T00:55:55.892Z,19.00
2022-12-07T00:57:26.960Z,19.80
2022-12-07T00:59:04.082Z,22.40
2022-12-07T01:00:41.754Z,19.10
2022-12-07T01:02:12.869Z,19.20
2022-12-07T01:03:43.997Z,21.50
2022-12-07T01:05:15.253Z,20.10
2022-12-07T01:06:46.551Z,19.50
2022-12-07T01:08:17.902Z,21.20
2022-12-07T01:09:50.506Z,21.40
2022-12-07T01:11:25.721Z,17.50
2022-12-07T01:12:57.976Z,20.10
2022-12-07T01:14:29.649Z,22.70
2022-12-07T01:16:04.234Z,21.10
2022-12-07T01:17:35.539Z,19.60
2022-12-07T01:19:06.569Z,24.10
2022-12-07T01:20:38.257Z,21.10
2022-12-07T01:22:09.324Z,21.80
2022-12-07T01:23:41.326Z,20.30
2022-12-07T01:25:12.807Z,22.50
2022-12-07T01:26:45.251Z,18.20
2022-12-07T01:28:16.390Z,21.10
2022-12-07T01:29:47.540Z,22.70
2022-12-07T01:31:22.390Z,24.40
2022-12-07T01:32:53.597Z,21.80
2022-12-07T01:34:24.705Z,23.70
2022-12-07T01:36:15.134Z,19.10
2022-12-07T01:37:46.186Z,21.70
2022-12-07T01:39:17.349Z,20.60
2022-12-07T01:40:55.631Z,22.50
2022-12-07T01:42:26.676Z,23.20
2022-12-07T01:44:19.571Z,17.70
2022-12-07T01:45:50.841Z,24.80
2022-12-07T01:47:22.052Z,17.80
2022-12-07T01:48:53.155Z,20.80
2022-12-07T01:50:32.268Z,24.90
2022-12-07T01:52:17.797Z,22.70
2022-12-07T01:53:49.152Z,17.00
2022-12-07T01:55:20.657Z,24.60
2022-12-07T01:56:56.325Z,22.60
2022-12-07T01:58:28.915Z,22.50
2022-12-07T02:00:01.360Z,22.80
2022-12-07T02:01:44.172Z,20.40
2022-12-07T02:03:27.088Z,19.70
2022-12-07T02:05:01.318Z,21.20
2022-12-07T02:06:32.640Z,22.80
2022-12-07T02:08:04.601Z,23.20
2022-12-07T02:09:35.725Z,24.70
2022-12-07T02:11:09.632Z,26.40
2022-12-07T02:12:41.187Z,24.60
2022-12-07T02:14:12.329Z,23.80
2022-12-07T02:15:49.529Z,21.40
2022-12-07T02:17:39.448Z,26.70
2022-12-07T02:19:44.875Z,21.70
2022-12-07T02:21:28.572Z,26.10
2022-12-07T02:23:27.706Z,23.50
2022-12-07T02:25:12.596Z,22.70
2022-12-07T02:27:01.774Z,21.60
2022-12-07T02:29:08.145Z,25.50
2022-12-07T02:30:48.514Z,24.80
2022-12-07T02:32:33.282Z,22.40
2022-12-07T02:34:13.420Z,25.70
2022-12-07T02:35:54.860Z,26.80
2022-12-07T02:37:43.599Z,24.80
2022-12-07T02:39:25.579Z,22.70
2022-12-07T02:41:18.533Z,24.50
2022-12-07T02:42:57.671Z,20.20
2022-12-07T02:44:32.350Z,29.40
2022-12-07T02:46:10.297Z,24.70
2022-12-07T02:47:43.762Z,27.40
2022-12-07T02:49:15.578Z,26.50
2022-12-07T02:50:52.501Z,23.80
2022-12-07T02:52:23.588Z,21.90
2022-12-07T02:53:54.701Z,25.50
2022-12-07T02:55:39.618Z,26.10
2022-12-07T02:57:28.697Z,26.80
2022-12-07T02:59:39.347Z,24.20
2022-12-07T03:01:41.819Z,24.10
2022-12-07T03:03:16.019Z,23.40
2022-12-07T03:05:28.126Z,26.30
2022-12-07T03:07:40.376Z,25.70
2022-12-07T03:09:31.347Z,21.40
2022-12-07T03:11:10.662Z,25.80
2022-12-07T03:12:56.068Z,25.00
2022-12-07T03:14:37.772Z,22.90
2022-12-07T03:16:26.143Z,23.80
2022-12-07T03:18:01.213Z,24.10
2022-12-07T03:19:36.963Z,21.10
2022-12-07T03:21:15.532Z,23.40
2022-12-07T03:22:47.537Z,21.50
2022-12-07T03:24:26.487Z,22.70
2022-12-07T03:26:01.614Z,27.00
2022-12-07T03:27:40.776Z,24.70
2022-12-07T03:29:42.533Z,19.80
2022-12-07T03:31:39.060Z,25.10
2022-12-07T03:33:22.139Z,23.10
2022-12-07T03:35:37.528Z,25.20
2022-12-07T03:39:52.603Z,21.90
2022-12-07T03:41:40.807Z,23.70
2022-12-07T03:43:18.573Z,21.60
2022-12-07T03:44:54.542Z,24.60
2022-12-07T03:46:44.218Z,24.50
2022-12-07T03:48:35.714Z,26.50
2022-12-07T03:50:19.635Z,23.20
2022-12-07T03:52:12.208Z,28.80
2022-12-07T03:53:54.986Z,21.50
2022-12-07T03:55:38.699Z,26.30
2022-12-07T03:57:12.728Z,24.00
2022-12-07T03:58:44.444Z,26.10
2022-12-07T04:00:16.513Z,19.20
2022-12-07T04:01:55.947Z,26.40
2022-12-07T04:03:30.282Z,27.20
2022-12-07T04:05:01.884Z,27.30
2022-12-07T04:06:33.082Z,29.10
2022-12-07T04:08:04.692Z,24.50
2022-12-07T04:09:35.798Z,29.80
2022-12-07T04:11:06.892Z,24.40
2022-12-07T04:12:38.144Z,24.10
2022-12-07T04:14:18.709Z,25.40
2022-12-07T04:15:49.958Z,27.30
2022-12-07T04:17:21.282Z,22.40
2022-12-07T04:18:52.372Z,20.70
2022-12-07T04:20:25.024Z,24.20
2022-12-07T04:21:58.842Z,26.60
2022-12-07T04:23:29.899Z,25.40
2022-12-07T04:25:01.282Z,22.60
2022-12-07T04:26:32.434Z,23.50
2022-12-07T04:28:03.771Z,26.30
2022-12-07T04:29:34.879Z,27.90
2022-12-07T04:31:06.134Z,21.00
2022-12-07T04:32:37.423Z,23.10
2022-12-07T04:34:09.024Z,24.00
2022-12-07T04:35:41.969Z,20.70
2022-12-07T04:37:13.103Z,20.80
2022-12-07T04:38:44.183Z,22.70
2022-12-07T04:40:15.625Z,21.50
2022-12-07T04:41:46.758Z,18.70
2022-12-07T04:43:17.851Z,16.80
2022-12-07T04:44:48.961Z,17.90
2022-12-07T04:46:20.170Z,18.10
2022-12-07T04:47:51.396Z,21.60
2022-12-07T04:49:22.644Z,21.10
2022-12-07T04:50:53.677Z,19.00
2022-12-07T04:52:24.724Z,19.00
2022-12-07T04:53:56.995Z,19.60
2022-12-07T04:55:28.100Z,15.40
2022-12-07T04:56:59.463Z,19.50
2022-12-07T04:58:30.858Z,21.00
2022-12-07T05:00:02.730Z,22.40
2022-12-07T05:01:34.589Z,20.50
2022-12-07T05:03:05.932Z,19.10
2022-12-07T05:04:37.177Z,21.40
2022-12-07T05:06:13.403Z,19.10
2022-12-07T05:07:44.972Z,19.90
2022-12-07T05:09:16.146Z,18.30
2022-12-07T05:10:52.615Z,22.00
2022-12-07T05:12:23.750Z,20.70
2022-12-07T05:13:54.886Z,21.30
2022-12-07T05:28:59.095Z,20.60
2022-12-07T05:30:32.014Z,21.20
2022-12-07T05:32:03.973Z,22.50
2022-12-07T05:33:36.282Z,20.40
2022-12-07T05:35:08.939Z,16.80
2022-12-07T05:36:41.471Z,18.80
2022-12-07T05:38:13.216Z,19.50
2022-12-07T05:39:45.383Z,21.80
2022-12-07T05:41:38.471Z,18.60
2022-12-07T05:43:11.849Z,15.70
2022-12-07T05:44:48.306Z,20.90
2022-12-07T05:46:20.109Z,22.40
2022-12-07T05:47:51.956Z,22.20
2022-12-07T05:49:23.865Z,21.40
2022-12-07T05:50:55.773Z,18.20
2022-12-07T05:52:27.657Z,20.60
2022-12-07T05:53:59.648Z,23.00
2022-12-07T05:55:31.405Z,24.80
2022-12-07T05:57:03.396Z,22.80
2022-12-07T05:58:55.485Z,24.20
2022-12-07T06:00:27.452Z,20.50
2022-12-07T06:02:07.344Z,24.40
2022-12-07T06:03:39.216Z,19.90
2022-12-07T06:05:11.052Z,23.10
2022-12-07T06:06:42.987Z,20.80
2022-12-07T06:08:15.933Z,20.80
2022-12-07T06:09:47.899Z,21.50
2022-12-07T06:11:38.450Z,22.30
2022-12-07T06:13:10.358Z,21.10
2022-12-07T06:14:46.944Z,20.50
2022-12-07T06:16:18.828Z,18.80
2022-12-07T06:17:50.937Z,20.30
2022-12-07T06:19:23.154Z,17.20
2022-12-07T06:20:54.955Z,21.90
2022-12-07T06:22:26.704Z,19.10
2022-12-07T06:23:58.727Z,23.70
2022-12-07T06:25:30.506Z,19.80
2022-12-07T06:27:02.594Z,19.40
2022-12-07T06:28:34.383Z,19.50
2022-12-07T06:30:07.721Z,19.20
2022-12-07T06:31:40.445Z,18.10
2022-12-07T06:33:12.479Z,17.70
2022-12-07T06:34:44.291Z,19.70
2022-12-07T06:36:16.145Z,19.70
2022-12-07T06:37:48.331Z,18.50
2022-12-07T06:39:29.697Z,20.80
2022-12-07T06:41:01.497Z,27.40
2022-12-07T06:42:33.282Z,20.10
2022-12-07T06:44:06.950Z,19.90
2022-12-07T06:45:38.867Z,20.20
2022-12-07T06:47:39.414Z,17.10
2022-12-07T06:49:03.656Z,19.00
2022-12-07T06:50:44.352Z,16.20
2022-12-07T06:52:16.170Z,17.30
2022-12-07T06:53:48.879Z,16.50
2022-12-07T06:55:20.677Z,19.20
2022-12-07T06:56:54.599Z,21.70
2022-12-07T06:58:27.249Z,18.10
2022-12-07T06:59:59.283Z,18.40
2022-12-07T07:01:31.800Z,16.10
2022-12-07T07:03:03.996Z,19.80
2022-12-07T07:04:35.911Z,19.50
2022-12-07T07:06:08.713Z,17.00
2022-12-07T07:07:57.977Z,21.10
2022-12-07T07:09:32.138Z,16.40
2022-12-07T07:11:05.398Z,19.50
2022-12-07T07:12:37.065Z,19.50
2022-12-07T07:14:08.853Z,19.50
2022-12-07T07:15:40.716Z,22.20
2022-12-07T07:17:12.672Z,15.90
2022-12-07T07:18:48.138Z,20.60
2022-12-07T07:20:20.281Z,18.20
2022-12-07T07:21:52.184Z,21.00
2022-12-07T07:23:24.859Z,21.50
2022-12-07T07:24:56.776Z,19.80
2022-12-07T07:26:29.305Z,22.60
2022-12-07T07:28:08.647Z,18.80
2022-12-07T07:29:40.597Z,19.00
2022-12-07T07:31:12.557Z,24.20
2022-12-07T07:32:44.677Z,23.50
2022-12-07T07:34:16.481Z,21.50
2022-12-07T07:35:48.246Z,26.00
2022-12-07T07:37:22.093Z,21.30
2022-12-07T07:38:54.338Z,18.40
2022-12-07T07:40:27.062Z,22.70
2022-12-07T07:47:26.312Z,17.80
2022-12-07T07:48:58.715Z,19.80
2022-12-07T07:50:30.518Z,21.90
2022-12-07T07:52:02.423Z,18.30
2022-12-07T07:53:34.258Z,20.30
2022-12-07T07:55:09.539Z,21.10
2022-12-07T07:56:41.318Z,15.10
2022-12-07T07:58:13.044Z,15.10
2022-12-07T07:59:44.880Z,18.10
2022-12-07T08:01:17.641Z,17.80
2022-12-07T08:02:49.601Z,16.10
2022-12-07T08:04:24.224Z,15.70
2022-12-07T08:06:16.109Z,20.10
2022-12-07T08:07:51.640Z,17.10
2022-12-07T08:09:26.383Z,15.70
2022-12-07T08:11:13.969Z,21.30
2022-12-07T08:15:07.389Z,14.80
2022-12-07T08:17:02.017Z,22.60
2022-12-07T08:18:38.154Z,18.80
2022-12-07T08:20:10.514Z,17.50
2022-12-07T08:21:42.339Z,16.60
2022-12-07T08:23:16.345Z,16.50
2022-12-07T08:24:49.233Z,19.40
2022-12-07T08:26:21.507Z,13.50
2022-12-07T08:27:55.661Z,16.20
2022-12-07T08:29:27.610Z,13.30
2022-12-07T08:31:29.110Z,13.10
2022-12-07T08:33:06.456Z,14.10
2022-12-07T08:34:38.316Z,13.50
2022-12-07T08:36:13.676Z,14.30
2022-12-07T08:37:45.582Z,13.30
2022-12-07T08:39:31.445Z,11.40
2022-12-07T08:41:04.986Z,16.70
2022-12-07T08:42:41.148Z,16.40
2022-12-07T08:44:13.215Z,13.70
2022-12-07T08:45:45.071Z,16.70
2022-12-07T08:47:16.861Z,15.00
2022-12-07T08:49:05.633Z,13.30
2022-12-07T08:50:43.160Z,14.10
2022-12-07T08:52:19.374Z,13.60
2022-12-07T08:53:53.646Z,15.10
2022-12-07T08:55:26.546Z,14.50
2022-12-07T08:56:59.758Z,13.20
2022-12-07T08:58:32.827Z,12.30
2022-12-07T09:00:06.719Z,13.10
2022-12-07T09:01:38.667Z,14.50
2022-12-07T09:03:10.578Z,13.90
2022-12-07T09:04:42.399Z,17.00
2022-12-07T09:06:14.364Z,11.60
2022-12-07T09:07:51.539Z,13.80
2022-12-07T09:09:23.456Z,11.70
2022-12-07T09:10:55.319Z,14.00
2022-12-07T09:12:27.095Z,13.80
2022-12-07T09:13:58.911Z,11.30
2022-12-07T09:15:32.276Z,13.60
2022-12-07T09:17:16.195Z,13.60
2022-12-07T09:18:47.947Z,13.40
2022-12-07T09:20:23.315Z,11.30
2022-12-07T09:22:00.084Z,10.70
2022-12-07T09:23:32.723Z,11.80
2022-12-07T09:25:06.134Z,16.00
2022-12-07T09:26:40.295Z,12.90
2022-12-07T09:28:12.094Z,10.40
2022-12-07T09:29:44.017Z,10.90
2022-12-07T09:31:24.701Z,13.60
2022-12-07T09:33:00.864Z,12.10
2022-12-07T09:34:33.338Z,13.00
2022-12-07T09:36:06.188Z,12.00
2022-12-07T09:37:37.985Z,12.30
2022-12-07T09:39:10.142Z,12.30
2022-12-07T09:40:45.613Z,14.90
2022-12-07T09:42:44.926Z,10.40
2022-12-07T09:44:25.830Z,10.10
2022-12-07T09:45:58.431Z,13.40
2022-12-07T09:47:30.597Z,11.40
2022-12-07T09:49:03.050Z,8.60
2022-12-07T09:50:34.836Z,7.40
2022-12-07T09:52:09.765Z,10.50
2022-12-07T09:53:44.169Z,8.90
2022-12-07T09:55:31.726Z,15.80
2022-12-07T09:57:04.163Z,9.30
2022-12-07T09:58:36.002Z,11.80
2022-12-07T10:00:15.511Z,9.20
2022-12-07T10:01:50.596Z,10.20
2022-12-07T10:03:22.497Z,9.30
2022-12-07T10:04:55.053Z,11.30
2022-12-07T10:06:26.923Z,10.70
2022-12-07T10:07:58.765Z,10.70
2022-12-07T10:09:35.737Z,9.50
2022-12-07T10:11:11.460Z,10.20
2022-12-07T10:13:16.307Z,11.10
2022-12-07T10:15:07.745Z,10.40
2022-12-07T10:16:42.783Z,9.90
2022-12-07T10:18:42.072Z,10.10
2022-12-07T10:20:22.494Z,9.20
2022-12-07T10:22:14.300Z,9.80
2022-12-07T10:24:15.985Z,14.50
2022-12-07T10:25:49.158Z,12.30
2022-12-07T10:27:33.388Z,12.90
2022-12-07T10:29:28.904Z,11.00
2022-12-07T10:31:15.409Z,9.80
2022-12-07T10:32:47.265Z,7.90
2022-12-07T10:34:27.863Z,9.30
2022-12-07T10:36:01.392Z,8.40
2022-12-07T10:37:42.312Z,9.10
2022-12-07T10:39:21.528Z,12.70
2022-12-07T10:54:45.403Z,8.60
2022-12-07T10:56:51.025Z,11.50
2022-12-07T10:59:13.223Z,7.50
2022-12-07T11:01:25.244Z,11.00
2022-12-07T11:03:46.641Z,11.00
2022-12-07T11:05:33.455Z,8.80
2022-12-07T11:07:46.134Z,9.60
2022-12-07T11:10:14.410Z,9.20
2022-12-07T11:12:07.043Z,9.20
2022-12-07T11:13:57.680Z,9.40
2022-12-07T11:16:05.629Z,8.60
2022-12-07T11:17:54.464Z,9.20
2022-12-07T11:20:06.629Z,13.10
2022-12-07T11:22:24.543Z,10.10
2022-12-07T11:24:17.261Z,9.60
2022-12-07T11:25:54.723Z,9.60
2022-12-07T11:28:06.032Z,12.40
2022-12-07T11:30:10.601Z,9.80
2022-12-07T11:31:59.563Z,7.90
2022-12-07T11:33:48.021Z,10.20
2022-12-07T11:35:44.032Z,9.20
2022-12-07T11:37:24.401Z,8.90
2022-12-07T11:39:37.203Z,7.40
2022-12-07T11:41:16.363Z,10.60
2022-12-07T11:43:00.285Z,8.00
2022-12-07T11:44:43.096Z,8.90
2022-12-07T11:46:17.716Z,11.10
2022-12-07T11:48:04.366Z,13.70
2022-12-07T11:49:53.498Z,9.80
2022-12-07T11:51:33.180Z,8.20
2022-12-07T11:53:33.899Z,9.50
2022-12-07T11:55:21.945Z,6.10
2022-12-07T11:56:57.696Z,8.00
2022-12-07T11:58:48.115Z,9.10
2022-12-07T12:00:20.271Z,8.20
2022-12-07T12:02:02.937Z,7.10
2022-12-07T12:03:40.845Z,4.60
2022-12-07T12:05:25.701Z,7.50
2022-12-07T12:06:57.278Z,7.90
2022-12-07T12:10:56.813Z,5.90
2022-12-07T12:15:47.418Z,6.50
2022-12-07T12:17:29.058Z,8.90
2022-12-07T12:19:31.998Z,8.40
2022-12-07T12:21:13.165Z,7.10
2022-12-07T12:23:15.212Z,11.00
2022-12-07T12:24:54.151Z,7.10
2022-12-07T12:26:32.843Z,5.50
2022-12-07T12:28:05.138Z,7.10
2022-12-07T12:29:44.951Z,6.20
2022-12-07T12:31:22.947Z,6.00
2022-12-07T12:33:06.081Z,6.10
2022-12-07T12:35:01.610Z,5.90
2022-12-07T12:36:46.890Z,6.50
2022-12-07T12:38:34.152Z,5.90
2022-12-07T12:40:54.441Z,8.00
2022-12-07T12:42:55.761Z,6.10
2022-12-07T12:44:29.255Z,7.70
2022-12-07T12:46:34.367Z,7.00
2022-12-07T12:48:36.667Z,5.00
2022-12-07T12:50:20.708Z,5.10
2022-12-07T12:52:20.939Z,8.20
2022-12-07T12:53:52.266Z,7.30
2022-12-07T12:55:43.114Z,5.80
2022-12-07T12:57:38.710Z,5.40
2022-12-07T12:59:23.209Z,6.50
2022-12-07T13:01:36.648Z,7.20
2022-12-07T13:03:27.012Z,6.60
2022-12-07T13:05:13.005Z,5.90
2022-12-07T13:06:44.341Z,8.80
2022-12-07T13:08:29.393Z,8.20
2022-12-07T13:10:32.898Z,6.60
2022-12-07T13:12:16.307Z,6.50
2022-12-07T13:13:47.524Z,5.20
2022-12-07T13:15:38.572Z,5.50
2022-12-07T13:17:32.494Z,7.90
2022-12-07T13:19:41.733Z,7.50
2022-12-07T13:21:13.136Z,6.40
2022-12-07T13:22:49.994Z,7.80
2022-12-07T13:24:23.542Z,8.30
2022-12-07T13:26:01.797Z,10.30
2022-12-07T13:27:37.348Z,8.30
2022-12-07T13:29:20.542Z,7.10
2022-12-07T13:31:57.407Z,5.60
2022-12-07T13:33:33.203Z,7.70
2022-12-07T13:35:40.856Z,8.60
2022-12-07T13:37:27.434Z,10.00
2022-12-07T13:39:11.936Z,9.20
2022-12-07T13:40:43.852Z,7.70
2022-12-07T13:42:32.217Z,6.70
2022-12-07T13:44:10.804Z,7.60
2022-12-07T13:45:51.701Z,6.10
2022-12-07T13:47:49.546Z,8.00
2022-12-07T13:49:29.828Z,7.60
2022-12-07T13:51:05.680Z,11.70
2022-12-07T13:52:46.423Z,5.20
2022-12-07T13:54:21.899Z,7.80
2022-12-07T13:55:54.862Z,6.60
2022-12-07T13:57:37.580Z,6.00
2022-12-07T13:59:21.819Z,4.50
2022-12-07T14:00:54.227Z,5.60
2022-12-07T14:02:34.791Z,9.10
2022-12-07T14:04:36.314Z,5.60
2022-12-07T14:06:28.015Z,2.80
2022-12-07T14:08:15.354Z,5.20
2022-12-07T14:10:07.041Z,3.70
2022-12-07T14:11:39.120Z,4.60
2022-12-07T14:13:31.952Z,8.20
2022-12-07T14:15:05.198Z,5.80
2022-12-07T14:16:39.812Z,4.80
2022-12-07T14:18:29.384Z,4.30
2022-12-07T14:20:05.864Z,5.60
2022-12-07T14:21:37.638Z,4.10
2022-12-07T14:23:28.207Z,6.20
2022-12-07T14:25:22.872Z,5.80
2022-12-07T14:26:55.300Z,6.70
2022-12-07T14:28:29.759Z,5.40
2022-12-07T14:30:02.865Z,5.80
2022-12-07T14:31:34.686Z,5.10
2022-12-07T14:33:07.922Z,6.70
2022-12-07T14:34:39.793Z,5.70
2022-12-07T14:36:13.852Z,6.20
2022-12-07T14:37:50.314Z,5.50
2022-12-07T14:39:22.411Z,7.10
2022-12-07T14:41:15.852Z,6.60
2022-12-07T14:42:52.294Z,9.60
2022-12-07T14:44:28.085Z,10.60
2022-12-07T14:46:03.962Z,5.10
2022-12-07T14:49:34.943Z,6.30
2022-12-07T14:54:55.062Z,12.40
2022-12-07T14:56:26.998Z,9.00
2022-12-07T14:57:59.901Z,7.80
2022-12-07T14:59:31.878Z,9.40
2022-12-07T15:01:04.206Z,10.20
2022-12-07T15:02:35.891Z,7.10
2022-12-07T15:04:07.874Z,9.70
2022-12-07T15:05:46.641Z,8.40
2022-12-07T15:07:22.423Z,8.00
2022-12-07T15:08:57.199Z,6.80
2022-12-07T15:12:48.878Z,8.80
2022-12-07T15:14:20.652Z,8.20
2022-12-07T15:15:55.291Z,8.60
2022-12-07T15:17:32.088Z,8.90
2022-12-07T15:19:27.369Z,7.60
2022-12-07T15:20:55.988Z,8.20
2022-12-07T15:22:27.908Z,8.10
2022-12-07T15:23:59.579Z,7.00
2022-12-07T15:25:31.409Z,8.40
2022-12-07T15:27:03.920Z,9.90
2022-12-07T15:28:35.688Z,9.90
2022-12-07T15:30:10.978Z,8.40
2022-12-07T15:31:58.707Z,9.60
2022-12-07T15:33:30.712Z,14.10
2022-12-07T15:35:02.699Z,15.40
2022-12-07T15:36:35.481Z,12.20
2022-12-07T15:38:07.887Z,11.80
2022-12-07T15:39:39.642Z,10.80
2022-12-07T15:41:11.386Z,7.60
2022-12-07T15:42:45.951Z,10.80
2022-12-07T15:44:38.415Z,8.30
2022-12-07T15:46:10.454Z,9.80
2022-12-07T15:48:26.915Z,12.00
2022-12-07T15:49:40.153Z,7.40
2022-12-07T15:51:12.172Z,9.40
2022-12-07T15:52:45.028Z,8.30
2022-12-07T15:54:45.805Z,9.80
2022-12-07T15:56:18.951Z,9.50
2022-12-07T15:57:50.718Z,6.90
2022-12-07T15:59:23.768Z,7.20
2022-12-07T16:00:55.529Z,8.80
2022-12-07T16:02:27.774Z,9.30
2022-12-07T16:04:00.241Z,6.70
2022-12-07T16:05:32.073Z,12.20
2022-12-07T16:07:04.364Z,9.40
2022-12-07T16:08:36.839Z,9.80
2022-12-07T16:10:09.352Z,12.40
2022-12-07T16:11:41.073Z,11.80
2022-12-07T16:13:14.586Z,7.90
2022-12-07T16:14:47.000Z,11.80
2022-12-07T16:16:22.981Z,13.80
2022-12-07T16:17:58.593Z,12.00
2022-12-07T16:19:30.347Z,11.10
2022-12-07T16:21:02.268Z,11.70
2022-12-07T16:22:34.387Z,13.60
2022-12-07T16:24:07.310Z,10.80
2022-12-07T16:25:39.112Z,11.20
2022-12-07T16:27:10.999Z,10.80
2022-12-07T16:28:43.514Z,8.70
2022-12-07T16:30:17.314Z,8.70
2022-12-07T16:31:50.245Z,9.00
2022-12-07T16:33:22.166Z,8.00
2022-12-07T16:34:53.917Z,12.80
2022-12-07T16:38:21.420Z,10.00
2022-12-07T16:39:53.310Z,8.00
2022-12-07T16:41:26.098Z,10.10
2022-12-07T16:42:58.112Z,12.20
2022-12-07T16:44:31.604Z,7.30
2022-12-07T16:46:04.655Z,8.10
2022-12-07T16:47:39.420Z,11.80
2022-12-07T16:49:16.080Z,6.50
2022-12-07T16:50:51.442Z,11.00
2022-12-07T16:52:23.514Z,8.60
2022-12-07T16:53:55.467Z,8.90
2022-12-07T16:55:27.256Z,8.00
2022-12-07T16:56:59.059Z,8.20
2022-12-07T16:58:53.310Z,7.00
2022-12-07T17:00:30.642Z,10.20
2022-12-07T17:02:52.987Z,6.70
2022-12-07T17:13:00.558Z,9.40
2022-12-07T17:14:50.977Z,8.30
2022-12-07T17:16:22.249Z,8.30
2022-12-07T17:17:58.118Z,12.00
2022-12-07T17:19:29.522Z,9.60
2022-12-07T17:21:07.339Z,8.10
2022-12-07T17:22:39.040Z,8.00
2022-12-07T17:24:17.677Z,6.80
2022-12-07T17:25:48.826Z,6.60
2022-12-07T17:27:19.951Z,11.70
2022-12-07T17:28:52.744Z,9.30
2022-12-07T17:30:24.461Z,6.50
2022-12-07T17:32:03.961Z,8.40
2022-12-07T17:33:38.135Z,8.90
2022-12-07T17:35:14.230Z,5.90
2022-12-07T17:36:47.091Z,5.20
2022-12-07T17:38:18.812Z,6.10
2022-12-07T17:42:37.243Z,8.50
2022-12-07T17:44:14.615Z,6.90
2022-12-07T17:45:46.446Z,6.50
2022-12-07T17:47:19.656Z,4.20
2022-12-07T17:49:00.702Z,8.40
2022-12-07T17:50:50.389Z,9.20
2022-12-07T17:52:40.952Z,4.00
2022-12-07T17:54:14.819Z,5.90
2022-12-07T17:56:26.536Z,6.30
2022-12-07T17:57:38.604Z,8.10
2022-12-07T17:59:10.343Z,7.20
2022-12-07T18:00:42.077Z,7.30
2022-12-07T18:02:14.032Z,11.00
2022-12-07T18:03:45.164Z,7.30
2022-12-07T18:05:16.608Z,7.10
2022-12-07T18:06:52.063Z,6.90
2022-12-07T18:20:15.536Z,13.40
2022-12-07T18:21:47.580Z,11.40
2022-12-07T18:23:20.832Z,13.60
2022-12-07T18:24:52.571Z,12.70
2022-12-07T18:26:26.710Z,11.10
2022-12-07T18:27:58.578Z,10.90
2022-12-07T18:29:30.517Z,15.80
2022-12-07T18:31:18.277Z,10.70
2022-12-07T18:32:50.272Z,11.60
2022-12-07T18:34:22.390Z,11.80
2022-12-07T18:35:54.140Z,16.00
2022-12-07T18:37:28.458Z,16.40
2022-12-07T18:39:00.298Z,19.90
2022-12-07T18:40:32.069Z,14.10
2022-12-07T18:42:04.374Z,18.30
2022-12-07T18:43:36.980Z,17.20
2022-12-07T18:45:09.914Z,13.10
2022-12-07T18:46:43.130Z,13.40
2022-12-07T18:48:17.853Z,16.30
2022-12-07T18:49:49.699Z,12.90
2022-12-07T18:51:45.767Z,13.30
2022-12-07T18:53:23.328Z,13.30
2022-12-07T18:54:55.381Z,15.00
2022-12-07T18:56:29.691Z,13.40
2022-12-07T18:58:02.744Z,10.70
2022-12-07T18:59:46.565Z,14.30
2022-12-07T19:01:18.589Z,12.70
2022-12-07T19:02:54.976Z,12.90
2022-12-07T19:04:27.013Z,12.40
2022-12-07T19:05:59.008Z,10.20
2022-12-07T19:07:38.341Z,11.40
2022-12-07T19:09:15.805Z,11.10
2022-12-07T19:10:47.663Z,7.60
2022-12-07T19:12:19.664Z,9.70
2022-12-07T19:13:51.938Z,9.30
2022-12-07T19:15:23.778Z,8.10
2022-12-07T19:16:59.764Z,8.50
2022-12-07T19:18:31.790Z,8.20
2022-12-07T19:20:07.255Z,10.00
2022-12-07T19:21:39.105Z,14.50
2022-12-07T19:23:11.167Z,9.30
2022-12-07T19:24:49.098Z,8.50
2022-12-07T19:26:23.293Z,10.10
2022-12-07T19:27:56.550Z,9.30
2022-12-07T19:29:31.368Z,8.70
2022-12-07T19:31:12.016Z,10.80
2022-12-07T19:32:43.814Z,10.20
2022-12-07T19:34:45.856Z,12.40
2022-12-07T19:36:17.651Z,11.60
2022-12-07T19:37:50.549Z,8.10
2022-12-07T19:39:23.323Z,10.80
2022-12-07T19:40:56.064Z,10.90
2022-12-07T19:42:28.466Z,11.80
2022-12-07T19:44:13.410Z,10.00
2022-12-07T19:45:48.929Z,8.90
2022-12-07T19:47:21.181Z,10.90
2022-12-07T19:48:53.520Z,9.70
2022-12-07T19:50:25.389Z,11.30
2022-12-07T19:52:04.346Z,10.10
2022-12-07T19:53:37.511Z,9.30
2022-12-07T19:55:09.943Z,10.80
2022-12-07T19:56:43.512Z,7.90
2022-12-07T19:58:15.399Z,10.90
2022-12-07T19:59:47.951Z,7.70
2022-12-07T20:03:15.375Z,9.90
2022-12-07T20:04:47.614Z,11.60
2022-12-07T20:06:24.293Z,15.10
2022-12-07T20:07:57.061Z,11.30
2022-12-07T20:09:29.453Z,10.90
2022-12-07T20:11:23.648Z,8.40
2022-12-07T20:13:16.496Z,10.50
2022-12-07T20:14:49.247Z,10.50
2022-12-07T20:16:22.437Z,9.70
2022-12-07T20:17:54.518Z,9.10
2022-12-07T20:19:26.652Z,11.70
2022-12-07T20:21:00.896Z,7.70
2022-12-07T20:22:37.573Z,11.20
2022-12-07T20:24:22.271Z,12.70
2022-12-07T20:25:55.611Z,13.30
2022-12-07T20:27:28.995Z,13.20
2022-12-07T20:29:18.319Z,12.50
2022-12-07T20:30:54.979Z,12.20
2022-12-07T20:32:27.427Z,17.60
2022-12-07T20:34:02.977Z,13.20
2022-12-07T20:35:45.144Z,15.60
2022-12-07T20:37:20.910Z,17.00
2022-12-07T20:38:54.796Z,14.50
2022-12-07T20:40:26.701Z,14.70
2022-12-07T20:42:17.138Z,15.80
2022-12-07T20:43:48.931Z,13.30
2022-12-07T20:45:20.716Z,12.40
2022-12-07T20:46:52.513Z,15.20
2022-12-07T20:48:24.547Z,16.00
2022-12-07T20:49:56.448Z,15.30
2022-12-07T20:51:29.307Z,22.00
2022-12-07T20:53:01.088Z,15.60
2022-12-07T20:54:33.172Z,17.60
2022-12-07T20:56:17.673Z,15.00
2022-12-07T20:57:51.654Z,15.70
2022-12-07T20:59:23.959Z,13.80
2022-12-07T21:01:03.970Z,16.10
2022-12-07T21:02:40.395Z,12.80
2022-12-07T21:04:14.502Z,19.40
2022-12-07T21:05:50.705Z,16.90
2022-12-07T21:07:22.877Z,17.10
2022-12-07T21:08:58.910Z,15.50
2022-12-07T21:10:31.534Z,15.10
2022-12-07T21:12:03.536Z,11.10
2022-12-07T21:13:35.469Z,16.30
2022-12-07T21:15:10.406Z,16.60
2022-12-07T21:16:42.235Z,21.40
2022-12-07T21:19:17.504Z,17.80
2022-12-07T21:20:51.168Z,13.80
2022-12-07T21:22:23.498Z,18.50
2022-12-07T21:24:01.768Z,19.60
2022-12-07T21:25:34.490Z,19.40
2022-12-07T21:27:08.342Z,13.70
2022-12-07T21:28:45.468Z,16.40
2022-12-07T21:30:18.782Z,16.60
2022-12-07T21:31:50.743Z,14.20
2022-12-07T21:33:22.561Z,18.00
2022-12-07T21:34:54.399Z,19.00
2022-12-07T21:36:26.878Z,13.60
2022-12-07T21:37:59.420Z,15.40
2022-12-07T21:39:32.816Z,17.00
2022-12-07T21:41:37.685Z,17.50
2022-12-07T21:43:09.591Z,15.20
2022-12-07T21:44:43.062Z,14.10
2022-12-07T21:46:19.675Z,16.60
2022-12-07T21:47:51.943Z,11.80
2022-12-07T21:49:23.737Z,20.70
2022-12-07T21:50:56.831Z,18.40
2022-12-07T21:54:21.439Z,18.80
2022-12-07T21:55:56.131Z,13.00
2022-12-07T21:57:27.918Z,20.80
2022-12-07T21:59:07.770Z,20.70
2022-12-07T22:00:41.602Z,16.80
2022-12-07T22:02:16.631Z,15.70
2022-12-07T22:03:50.252Z,18.90
2022-12-07T22:05:22.366Z,13.30
2022-12-07T22:06:57.218Z,20.00
2022-12-07T22:08:29.773Z,16.50
2022-12-07T22:10:01.570Z,18.20
2022-12-07T22:11:34.692Z,16.50
2022-12-07T22:13:07.056Z,16.20
2022-12-07T22:14:57.704Z,16.20
2022-12-07T22:16:30.687Z,17.20
2022-12-07T22:18:02.660Z,18.30
2022-12-07T22:19:35.251Z,17.90
2022-12-07T22:21:07.195Z,15.30
2022-12-07T22:22:39.858Z,18.70
2022-12-07T22:26:26.400Z,19.80
2022-12-07T22:28:00.082Z,21.50
2022-12-07T22:29:33.577Z,23.50
2022-12-07T22:31:11.523Z,20.90
2022-12-07T22:32:49.171Z,21.70
2022-12-07T22:34:41.884Z,19.80